Time;durP1;ratioP1;P1;durP2;ratioP2;P2;SDS_P1;SDS_P2;PMS_P1;PMS_P2;Temp;Humidity;BMP_temperature;BMP_pressure;BME280_temperature;BME280_humidity;BME280_pressure;Samples;Min_cycle;Max_cycle;Signal;HPM_P1;HPM_P2
2024/03/29 00:00:44;;;;;;;3.70;2.40;;;;;;;7.68;60.23;98822.61;127247;1305;128689;-63
2024/03/29 00:05:04;;;;;;;4.60;2.00;;;;;;;7.64;60.54;98836.37;125923;1298;114971;-63
2024/03/29 00:08:43;;;;;;;3.50;1.80;;;;;;;7.59;61.02;98839.97;121580;1312;5416980;-63
2024/03/29 00:12:43;;;;;;;3.40;1.90;;;;;;;7.56;61.33;98847.25;125261;1318;114961;-63
2024/03/29 00:16:36;;;;;;;4.00;2.10;;;;;;;7.52;61.51;98862.43;125228;1304;115284;-63
2024/03/29 00:20:29;;;;;;;3.10;1.80;;;;;;;7.50;61.83;98870.91;125184;1305;114971;-63
2024/03/29 00:24:21;;;;;;;;;;;;;;;;;;;;;
2024/03/29 00:32:32;;;;;;;;;;;;;;;;;;;;;
2024/03/29 00:36:36;;;;;;;3.20;1.80;;;;;;;7.36;62.94;98897.00;128962;1272;128902;-63
2024/03/29 00:40:30;;;;;;;;;;;;;;;;;;;;;
2024/03/29 00:44:35;;;;;;;3.60;2.30;;;;;;;7.30;63.15;98925.00;125684;1308;114883;-63
2024/03/29 00:48:20;;;;;;;;;;;;;;;;;;;;;
2024/03/29 00:52:22;;;;;;;2.60;1.60;;;;;;;7.26;63.54;98942.99;125079;1308;114987;-63
2024/03/29 01:05:06;;;;;;;2.90;1.90;;;;;;;7.28;64.02;98974.17;126392;1298;637559;-62
2024/03/29 01:09:11;;;;;;;3.00;2.10;;;;;;;7.26;63.88;98981.54;128337;1290;128817;-63
2024/03/29 01:13:21;;;;;;;;;;;;;;;;;;;;;
2024/03/29 01:17:26;;;;;;;2.80;1.90;;;;;;;7.27;64.17;98998.01;122223;1297;5722952;-64
2024/03/29 01:21:53;;;;;;;3.40;2.00;;;;;;;7.27;64.15;98997.14;125350;1310;114959;-64
2024/03/29 01:25:31;;;;;;;3.30;1.70;;;;;;;7.28;64.36;99007.52;124390;1315;114904;-64
2024/03/29 01:38:12;;;;;;;2.90;2.00;;;;;;;7.30;64.67;99012.19;128697;1279;129159;-63
2024/03/29 01:42:15;;;;;;;2.60;1.90;;;;;;;7.29;64.38;99012.61;127307;1286;114828;-63
2024/03/29 01:46:14;;;;;;;2.20;1.70;;;;;;;7.30;64.60;99019.86;122650;1298;5584497;-64
2024/03/29 01:50:18;;;;;;;2.80;1.80;;;;;;;7.28;64.71;99024.02;126687;1312;115087;-64
2024/03/29 01:54:08;;;;;;;3.00;2.30;;;;;;;7.26;64.73;99022.19;126104;1295;114916;-63
2024/03/29 01:58:14;;;;;;;2.60;1.50;;;;;;;7.26;64.69;99016.70;125797;1303;114950;-63
2024/03/29 02:02:13;;;;;;;;;;;;;;;;;;;;;
2024/03/29 02:11:00;;;;;;;2.40;2.10;;;;;;;7.22;64.82;99019.05;125873;1295;637383;-63
2024/03/29 02:14:28;;;;;;;2.50;1.90;;;;;;;7.17;65.10;99026.44;128036;1281;127998;-63
2024/03/29 02:22:36;;;;;;;3.20;2.50;;;;;;;7.09;64.98;99027.61;123949;1280;5682219;-64
2024/03/29 02:26:46;;;;;;;2.90;2.10;;;;;;;7.05;65.27;99029.95;127262;1284;116269;-62
2024/03/29 02:30:47;;;;;;;2.90;2.00;;;;;;;7.01;65.35;99037.11;125925;1301;114988;-62
2024/03/29 02:34:39;;;;;;;3.00;2.20;;;;;;;6.98;65.48;99040.81;124459;1324;129719;-63
2024/03/29 02:53:39;;;;;;;2.70;2.00;;;;;;;7.29;65.27;99066.96;126514;1294;648894;-63
2024/03/29 03:01:48;;;;;;;3.10;1.90;;;;;;;7.22;65.51;99078.92;126477;1295;115256;-64
2024/03/29 03:05:48;;;;;;;2.40;2.10;;;;;;;7.13;65.69;99077.08;125903;1301;114943;-63
2024/03/29 03:18:13;;;;;;;4.20;2.50;;;;;;;6.88;65.97;99082.36;126354;1297;635257;-62
2024/03/29 03:22:16;;;;;;;4.40;2.30;;;;;;;6.74;66.13;99087.18;128808;1285;128013;-64
2024/03/29 03:26:20;;;;;;;2.70;2.30;;;;;;;6.63;66.36;99092.37;128340;1282;116379;-65
2024/03/29 03:30:20;;;;;;;;;;;;;;;;;;;;;
2024/03/29 03:39:02;;;;;;;5.30;2.30;;;;;;;6.40;66.93;99091.08;125857;1301;638442;-63
2024/03/29 03:42:57;;;;;;;3.70;2.10;;;;;;;6.30;67.14;99085.41;128474;1288;128406;-63
2024/03/29 03:46:44;;;;;;;3.60;2.70;;;;;;;6.23;67.37;99083.64;127836;1302;115214;-63
2024/03/29 03:50:53;;;;;;;2.90;2.20;;;;;;;6.17;67.45;99087.31;123820;1285;5406419;-63
2024/03/29 03:54:45;;;;;;;2.70;2.40;;;;;;;6.09;67.64;99089.81;125757;1316;114987;-63
2024/03/29 03:57:59;;;;;;;3.00;2.40;;;;;;;6.01;67.78;99096.77;125263;1302;114953;-63
2024/03/29 04:01:51;;;;;;;3.10;2.40;;;;;;;5.96;67.76;99102.30;125289;1307;115103;-63
2024/03/29 04:05:31;;;;;;;2.80;1.70;;;;;;;5.88;67.82;99109.61;124028;1331;129558;-63
2024/03/29 04:09:17;;;;;;;;;;;;;;;;;;;;;
2024/03/29 04:17:30;;;;;;;;;;;;;;;;;;;;;
2024/03/29 04:21:24;;;;;;;3.30;2.40;;;;;;;5.57;68.43;99133.63;129017;1289;114958;-63
2024/03/29 04:29:23;;;;;;;;;;;;;;;;;;;;;
2024/03/29 04:33:24;;;;;;;2.90;1.90;;;;;;;5.38;68.98;99144.94;127784;1283;114936;-63
2024/03/29 04:41:26;;;;;;;5.50;2.30;;;;;;;5.27;69.19;99151.30;126270;1286;126998;-62
2024/03/29 04:54:03;;;;;;;;;;;;;;;;;;;;;
2024/03/29 04:58:06;;;;;;;5.50;2.60;;;;;;;5.16;70.07;99173.92;125711;1319;115055;-62
2024/03/29 05:01:52;;;;;;;;;;;;;;;;;;;;;
2024/03/29 05:05:48;;;;;;;6.40;2.50;;;;;;;5.16;70.26;99165.58;124934;1305;114950;-62
2024/03/29 05:09:47;;;;;;;;;;;;;;;;;;;;;
2024/03/29 05:14:10;;;;;;;5.00;2.70;;;;;;;5.24;70.44;99174.42;126247;1294;636240;-62
2024/03/29 05:18:10;;;;;;;;;;;;;;;;;;;;;
2024/03/29 05:22:14;;;;;;;7.40;2.50;;;;;;;5.36;71.06;99176.05;127773;1282;114907;-62
2024/03/29 05:26:18;;;;;;;4.80;2.60;;;;;;;5.43;70.88;99173.23;121813;1297;7563255;-62
2024/03/29 05:30:09;;;;;;;;;;;;;;;;;;;;;
2024/03/29 05:33:57;;;;;;;5.60;2.60;;;;;;;5.61;71.06;99178.07;125083;1310;115058;-62
2024/03/29 05:38:00;;;;;;;;;;;;;;;;;;;;;
2024/03/29 05:42:16;;;;;;;3.10;1.50;;;;;;;5.86;71.16;99179.16;125561;1299;636178;-63
2024/03/29 05:46:02;;;;;;;;;;;;;;;;;;;;;
2024/03/29 05:50:07;;;;;;;;;;;;;;;6.12;71.15;99177.08;128690;1289;115013;-62
2024/03/29 05:53:51;;;;;;;3.20;1.40;;;;;;;6.24;71.23;99165.67;128561;1280;114837;-64
2024/03/29 05:58:00;;;;;;;3.60;1.70;;;;;;;6.42;71.07;99183.91;122915;1292;114951;-62
2024/03/29 06:01:54;;;;;;;0.80;0.60;;;;;;;6.60;71.10;99183.20;125816;1302;114916;-62
2024/03/29 06:06:01;;;;;;;2.40;1.50;;;;;;;6.79;70.85;99181.66;124626;1307;115020;-63
2024/03/29 06:17:57;;;;;;;2.60;1.30;;;;;;;7.49;70.44;99169.08;128884;1288;128688;-62
2024/03/29 06:22:20;;;;;;;3.60;1.10;;;;;;;7.93;70.22;99171.77;129298;1267;114838;-65
2024/03/29 06:25:20;;;;;;;;;;;;;;;;;;;;;
2024/03/29 06:29:23;;;;;;;1.80;0.50;;;;;;;9.14;69.43;99181.06;125180;1270;114841;-65
2024/03/29 06:33:19;;;;;;;;;;;;;;;;;;;;;
2024/03/29 06:37:23;;;;;;;;;;;;;;;;;;;;;
2024/03/29 06:41:25;;;;;;;2.10;1.00;;;;;;;10.78;66.70;99175.52;126171;1299;129656;-65
2024/03/29 06:45:05;;;;;;;;;;;;;;;;;;;;;
2024/03/29 06:53:30;;;;;;;3.30;1.10;;;;;;;12.11;64.48;99161.84;126382;1296;636143;-65
2024/03/29 06:57:25;;;;;;;;;;;;;;;;;;;;;
2024/03/29 07:00:54;;;;;;;2.10;1.00;;;;;;;12.79;62.16;99172.12;126233;1306;114892;-65
2024/03/29 07:04:55;;;;;;;;;;;;;;;;;;;;;
2024/03/29 07:08:58;;;;;;;5.30;0.80;;;;;;;13.29;61.35;99181.00;121968;1312;114988;-65
2024/03/29 07:12:52;;;;;;;;;;;;;;;;;;;;;
2024/03/29 07:17:19;;;;;;;2.80;0.80;;;;;;;14.03;59.78;99189.50;125922;1301;637416;-66
2024/03/29 07:21:22;;;;;;;2.60;0.90;;;;;;;14.16;58.80;99198.45;127058;1300;127607;-66
2024/03/29 07:25:23;;;;;;;2.00;0.80;;;;;;;14.31;58.12;99202.11;126236;1300;114809;-65
2024/03/29 07:29:15;;;;;;;;;;;;;;;;;;;;;
2024/03/29 07:37:34;;;;;;;;;;;;;;;;;;;;;
2024/03/29 07:41:30;;;;;;;;;;;;;;;;;;;;;
2024/03/29 07:45:33;;;;;;;2.30;0.70;;;;;;;14.66;54.99;99225.59;127708;1285;114958;-65
2024/03/29 07:49:21;;;;;;;2.30;0.70;;;;;;;14.70;54.47;99219.37;122899;1292;5417724;-65
2024/03/29 07:53:19;;;;;;;1.50;0.50;;;;;;;14.84;54.27;99212.97;125565;1314;115020;-65
2024/03/29 07:57:08;;;;;;;;;;;;;;;;;;;;;
2024/03/29 08:01:36;;;;;;;2.90;1.00;;;;;;;15.13;53.62;99217.21;126188;1296;638642;-65
2024/03/29 08:05:34;;;;;;;;;;;;;;;;;;;;;
2024/03/29 08:09:30;;;;;;;;;;;;;;;;;;;;;
2024/03/29 08:13:32;;;;;;;;;;;;;;;;;;;;;
2024/03/29 08:17:35;;;;;;;1.40;0.50;;;;;;;15.84;51.33;99247.55;127312;1287;114954;-66
2024/03/29 08:21:14;;;;;;;3.00;0.80;;;;;;;15.86;49.98;99252.08;126555;1300;114891;-65
2024/03/29 08:25:06;;;;;;;1.70;0.70;;;;;;;15.90;50.07;99257.19;126230;1299;114913;-65
2024/03/29 08:29:08;;;;;;;1.40;0.70;;;;;;;16.08;50.01;99259.52;125576;1295;129501;-64
2024/03/29 08:33:02;;;;;;;;;;;;;;;;;;;;;
2024/03/29 08:41:19;;;;;;;;;;;;;;;;;;;;;
2024/03/29 08:45:07;;;;;;;2.10;0.40;;;;;;;16.72;47.79;99256.07;128042;1282;128480;-63
2024/03/29 08:48:56;;;;;;;3.40;1.10;;;;;;;16.77;47.39;99247.03;128100;1280;114834;-65
2024/03/29 08:52:58;;;;;;;2.80;0.60;;;;;;;16.89;47.15;99244.31;128149;1286;114895;-65
2024/03/29 08:57:01;;;;;;;3.90;0.60;;;;;;;17.02;46.95;99236.41;124356;1282;114774;-64
2024/03/29 09:00:30;;;;;;;;;;;;;;;;;;;;;
2024/03/29 09:04:06;;;;;;;;;;;;;;;17.42;46.33;99228.30;127480;1298;114967;-64
2024/03/29 09:08:10;;;;;;;1.40;0.40;;;;;;;17.53;45.87;99228.95;127474;1298;129733;-65
2024/03/29 09:11:49;;;;;;;10.80;1.20;;;;;;;17.62;44.93;99232.73;126614;1296;114818;-65
2024/03/29 09:15:51;;;;;;;2.00;0.40;;;;;;;17.65;44.83;99230.86;126566;1301;115005;-66
2024/03/29 09:19:53;;;;;;;2.10;0.50;;;;;;;17.71;44.56;99231.94;126015;1303;114959;-64
2024/03/29 09:27:17;;;;;;;1.70;0.50;;;;;;;17.79;43.27;99222.46;126426;1306;130118;-64
2024/03/29 09:31:02;;;;;;;2.20;0.60;;;;;;;17.84;42.93;99212.80;125819;1304;115066;-65
2024/03/29 09:34:42;;;;;;;;;;;;;;;17.93;43.08;99212.80;126183;1308;114950;-65
2024/03/29 09:38:36;;;;;;;;;;;;;;;;;;;;;
2024/03/29 09:42:32;;;;;;;2.00;0.40;;;;;;;18.05;42.33;99210.84;125952;1314;115006;-64
2024/03/29 09:46:28;;;;;;;1.80;0.40;;;;;;;18.03;41.33;99199.35;125216;1302;127731;-65
2024/03/29 09:50:20;;;;;;;0.90;0.30;;;;;;;18.04;40.43;99190.04;125061;1325;115032;-64
2024/03/29 09:54:07;;;;;;;3.50;0.40;;;;;;;18.05;40.44;99190.15;124435;1314;115043;-65
2024/03/29 09:57:49;;;;;;;2.00;0.50;;;;;;;18.12;39.66;99196.46;124501;1313;114927;-64
2024/03/29 10:01:39;;;;;;;3.40;0.20;;;;;;;18.20;39.29;99193.59;123675;1322;114892;-63
2024/03/29 10:06:03;;;;;;;;;;;;;;;;;;;;;
2024/03/29 10:10:04;;;;;;;1.10;0.30;;;;;;;18.42;39.02;99187.21;128168;1275;129142;-64
2024/03/29 10:14:06;;;;;;;1.40;0.40;;;;;;;18.50;39.16;99179.54;127790;1284;114787;-64
2024/03/29 10:17:52;;;;;;;3.50;0.40;;;;;;;18.62;38.78;99174.04;122577;1295;5428397;-64
2024/03/29 10:26:05;;;;;;;;;;;;;;;;;;;;;
2024/03/29 10:30:10;;;;;;;3.10;0.30;;;;;;;18.35;37.39;99181.73;124272;1316;114968;-65
2024/03/29 10:38:31;;;;;;;2.50;0.30;;;;;;;18.25;37.23;99166.10;125827;1304;638561;-63
2024/03/29 10:42:33;;;;;;;1.40;0.40;;;;;;;18.17;36.64;99159.38;128263;1279;128949;-64
2024/03/29 10:46:30;;;;;;;5.20;1.00;;;;;;;18.05;36.77;99146.28;126682;1286;115030;-64
2024/03/29 10:50:23;;;;;;;1.20;0.20;;;;;;;18.02;37.13;99137.52;122760;1306;5550109;-63
2024/03/29 10:58:32;;;;;;;1.40;0.30;;;;;;;17.98;37.16;99117.29;127129;1284;116140;-64
2024/03/29 11:06:32;;;;;;;1.00;0.30;;;;;;;17.98;36.09;99110.46;125452;1318;128574;-63
2024/03/29 11:10:26;;;;;;;;;;;;;;;;;;;;;
2024/03/29 11:14:33;;;;;;;;;;;;;;;;;;;;;
2024/03/29 11:18:35;;;;;;;1.90;0.50;;;;;;;17.96;35.86;99101.07;124566;1328;115210;-64
2024/03/29 11:22:35;;;;;;;;;;;;;;;;;;;;;
2024/03/29 11:27:07;;;;;;;3.00;0.60;;;;;;;18.01;35.61;99106.86;124969;1307;127383;-64
2024/03/29 11:30:38;;;;;;;1.80;0.60;;;;;;;18.08;35.05;99106.54;124837;1328;114982;-63
2024/03/29 11:38:59;;;;;;;1.80;0.30;;;;;;;18.57;35.15;99093.89;125927;1295;636347;-63
2024/03/29 11:47:06;;;;;;;3.30;0.30;;;;;;;18.58;34.54;99104.95;127981;1281;114855;-64
2024/03/29 11:51:09;;;;;;;0.90;0.20;;;;;;;18.52;34.33;99117.98;123550;1286;5427542;-64
2024/03/29 11:59:09;;;;;;;;;;;;;;;;;;;;;
2024/03/29 12:03:10;;;;;;;;;;;;;;;;;;;;;
2024/03/29 12:07:12;;;;;;;1.40;0.30;;;;;;;18.91;33.94;99106.73;124978;1308;129910;-64
2024/03/29 12:15:28;;;;;;;1.40;0.30;;;;;;;18.92;34.55;99095.86;126820;1294;636090;-63
2024/03/29 12:19:32;;;;;;;0.60;0.30;;;;;;;19.07;34.42;99075.54;128592;1294;127579;-64
2024/03/29 12:27:46;;;;;;;1.40;0.50;;;;;;;19.09;34.34;99070.77;123227;1290;5424691;-64
2024/03/29 12:31:46;;;;;;;1.60;0.40;;;;;;;19.11;34.51;99069.70;126106;1318;114876;-65
2024/03/29 12:36:21;;;;;;;;;;;;;;;;;;;;;
2024/03/29 12:44:32;;;;;;;2.50;0.30;;;;;;;18.98;34.07;99044.83;126441;1305;638606;-65
2024/03/29 12:48:34;;;;;;;4.90;0.40;;;;;;;19.04;34.03;99040.43;128369;1278;128859;-64
2024/03/29 12:52:20;;;;;;;2.00;0.30;;;;;;;19.20;34.08;99033.45;127368;1291;114952;-64
2024/03/29 12:56:23;;;;;;;0.50;0.20;;;;;;;19.47;34.42;99043.06;122646;1296;5431129;-64
2024/03/29 12:59:58;;;;;;;1.80;0.20;;;;;;;19.63;33.53;99041.27;125746;1302;114917;-64
2024/03/29 13:03:48;;;;;;;1.10;0.30;;;;;;;19.72;33.92;99044.63;125913;1301;115032;-65
2024/03/29 13:07:47;;;;;;;0.90;0.30;;;;;;;19.80;33.76;99049.73;125208;1308;130205;-64
2024/03/29 13:11:16;;;;;;;2.40;0.40;;;;;;;19.80;33.35;99049.71;124659;1313;115030;-65
2024/03/29 13:19:39;;;;;;;1.60;0.30;;;;;;;19.86;33.96;99040.75;126326;1295;635910;-66
2024/03/29 13:23:42;;;;;;;1.60;0.30;;;;;;;19.86;33.48;99026.21;128763;1278;130359;-65
2024/03/29 13:31:44;;;;;;;1.10;0.40;;;;;;;19.72;33.13;99022.13;123361;1290;5455020;-67
2024/03/29 13:35:34;;;;;;;1.50;0.40;;;;;;;19.63;33.40;99019.33;125676;1315;114891;-68
2024/03/29 13:39:06;;;;;;;;;;;;;;;;;;;;;
2024/03/29 13:42:51;;;;;;;2.70;0.20;;;;;;;19.57;33.74;99026.21;125714;1301;129877;-65
2024/03/29 13:51:14;;;;;;;1.90;0.40;;;;;;;19.53;33.83;99034.88;126430;1292;642273;-64
2024/03/29 13:54:55;;;;;;;1.30;0.40;;;;;;;19.51;34.41;99036.73;128806;1267;128902;-65
2024/03/29 13:58:29;;;;;;;1.80;0.40;;;;;;;19.51;34.48;99032.58;128606;1275;115051;-65
2024/03/29 14:02:32;;;;;;;1.40;0.40;;;;;;;19.48;34.05;99028.83;128882;1285;114907;-65
2024/03/29 14:05:58;;;;;;;;;;;;;;;19.44;34.34;99030.35;123778;1294;114972;-64
2024/03/29 14:09:33;;;;;;;;;;;;;;;;;;;;;
2024/03/29 14:13:17;;;;;;;;;;;;;;;;;;;;;
2024/03/29 14:17:19;;;;;;;1.80;0.60;;;;;;;19.35;34.43;99024.32;125885;1298;130031;-63
2024/03/29 14:21:21;;;;;;;0.50;0.20;;;;;;;19.31;34.94;99016.17;126360;1298;114969;-63
2024/03/29 14:25:10;;;;;;;0.80;0.20;;;;;;;19.27;34.86;99015.73;125516;1306;114980;-64
2024/03/29 14:28:52;;;;;;;;;;;;;;;19.26;35.14;99012.52;125151;1305;115108;-63
2024/03/29 14:32:54;;;;;;;1.00;0.30;;;;;;;19.23;34.92;99009.39;125162;1326;114937;-65
2024/03/29 14:41:18;;;;;;;;;;;;;;;;;;;;;
2024/03/29 14:45:15;;;;;;;;;;;;;;;;;;;;;
2024/03/29 14:49:24;;;;;;;1.10;0.50;;;;;;;18.57;34.88;98987.55;127132;1310;114951;-63
2024/03/29 14:56:58;;;;;;;1.00;0.20;;;;;;;18.25;34.90;98986.53;125286;1318;114959;-64
2024/03/29 15:00:51;;;;;;;1.30;0.20;;;;;;;18.16;34.98;98992.77;124148;1316;115005;-65
2024/03/29 15:09:24;;;;;;;0.80;0.30;;;;;;;18.15;35.59;98995.78;125709;1301;637718;-65
2024/03/29 15:13:26;;;;;;;0.80;0.20;;;;;;;18.18;35.61;98991.71;128126;1301;128856;-63
2024/03/29 15:17:33;;;;;;;;;;;;;;;;;;;;;
2024/03/29 15:25:42;;;;;;;0.50;0.10;;;;;;;18.26;35.45;98975.52;124899;1325;114910;-64
2024/03/29 15:34:05;;;;;;;1.30;0.40;;;;;;;18.22;35.67;98979.95;126038;1298;635884;-65
2024/03/29 15:37:56;;;;;;;2.60;0.40;;;;;;;18.22;35.91;98979.90;129093;1272;128794;-65
2024/03/29 15:41:53;;;;;;;1.40;0.30;;;;;;;18.27;36.19;98962.45;128285;1282;114983;-66
2024/03/29 15:45:54;;;;;;;;;;;;;;;;;;;;;
2024/03/29 15:49:44;;;;;;;2.00;0.70;;;;;;;18.28;36.20;98948.30;126683;1292;114984;-64
2024/03/29 15:53:33;;;;;;;1.20;0.50;;;;;;;18.21;36.32;98951.47;126703;1292;114876;-67
2024/03/29 15:57:19;;;;;;;0.90;0.40;;;;;;;18.15;36.63;98956.78;125742;1298;127571;-66
2024/03/29 16:00:59;;;;;;;;;;;;;;;18.18;36.88;98962.45;125669;1304;114861;-67
2024/03/29 16:05:01;;;;;;;1.70;0.50;;;;;;;18.20;37.23;98960.11;125688;1306;114832;-66
2024/03/29 16:13:22;;;;;;;2.10;0.60;;;;;;;18.23;38.03;98970.94;126191;1291;637450;-65
2024/03/29 16:17:26;;;;;;;9.40;1.90;;;;;;;18.17;38.48;98975.77;128073;1284;129096;-65
2024/03/29 16:21:31;;;;;;;1.60;0.50;;;;;;;18.11;38.77;98969.31;126293;1296;114935;-65
2024/03/29 16:24:59;;;;;;;1.30;0.60;;;;;;;18.00;38.99;98974.41;121870;1305;5498559;-67
2024/03/29 16:28:47;;;;;;;2.50;1.10;;;;;;;17.88;39.36;98968.70;124965;1305;115075;-65
2024/03/29 16:32:35;;;;;;;;;;;;;;;;;;;;;
2024/03/29 16:36:36;;;;;;;2.30;0.70;;;;;;;17.50;40.16;98970.83;124883;1310;114840;-66
2024/03/29 16:45:04;;;;;;;3.80;0.90;;;;;;;17.17;40.91;98974.81;126060;1297;636941;-65
2024/03/29 16:49:07;;;;;;;2.70;1.00;;;;;;;17.00;41.38;98970.76;128564;1278;127817;-64
2024/03/29 16:53:09;;;;;;;2.40;1.00;;;;;;;16.83;41.83;98977.04;126730;1289;114918;-66
2024/03/29 16:57:13;;;;;;;1.40;1.10;;;;;;;16.69;42.23;98979.05;122332;1295;5405343;-67
2024/03/29 17:01:15;;;;;;;2.30;0.80;;;;;;;16.56;42.59;98986.08;125684;1313;114814;-66
2024/03/29 17:10:15;;;;;;;2.60;1.00;;;;;;;16.36;43.54;98977.58;125646;1298;649052;-65
2024/03/29 17:14:18;;;;;;;4.20;1.20;;;;;;;16.23;44.18;98974.28;128896;1276;128752;-64
2024/03/29 17:18:20;;;;;;;2.60;1.10;;;;;;;16.14;44.78;98976.40;128261;1300;114970;-64
2024/03/29 17:22:16;;;;;;;3.90;1.00;;;;;;;16.06;45.20;98982.73;122631;1294;5449555;-65
2024/03/29 17:26:17;;;;;;;3.00;1.40;;;;;;;15.96;45.40;98986.33;126048;1317;114994;-64
2024/03/29 17:30:19;;;;;;;3.70;0.80;;;;;;;15.83;45.88;98983.73;125186;1326;115023;-65
2024/03/29 17:38:29;;;;;;;;;;;;;;;;;;;;;
2024/03/29 17:42:33;;;;;;;3.30;1.20;;;;;;;15.43;47.72;98969.23;127202;1287;128767;-64
2024/03/29 17:46:36;;;;;;;4.60;1.10;;;;;;;15.31;48.08;98964.52;126076;1312;115207;-64
2024/03/29 17:50:45;;;;;;;1.30;0.60;;;;;;;15.24;48.68;98980.98;122448;1298;5511891;-64
2024/03/29 17:54:46;;;;;;;2.60;0.80;;;;;;;15.21;49.14;98983.75;125184;1310;114901;-65
2024/03/29 17:58:39;;;;;;;7.00;1.00;;;;;;;15.21;49.48;98990.94;123990;1318;115251;-65
2024/03/29 18:02:39;;;;;;;;;;;;;;;;;;;;;
2024/03/29 18:07:13;;;;;;;3.30;1.20;;;;;;;15.21;50.10;98993.85;125706;1305;638470;-65
2024/03/29 18:11:16;;;;;;;3.00;0.80;;;;;;;15.16;50.30;98993.41;127247;1289;128937;-65
2024/03/29 18:14:48;;;;;;;;;;;;;;;;;;;;;
2024/03/29 18:18:30;;;;;;;;;;;;;;;;;;;;;
2024/03/29 18:26:55;;;;;;;;;;;;;;;;;;;;;
2024/03/29 18:30:53;;;;;;;;;;;;;;;;;;;;;
2024/03/29 18:34:54;;;;;;;;;;;;;;;;;;;;;
2024/03/29 18:38:54;;;;;;;8.20;2.80;;;;;;;14.59;52.18;99000.69;125244;1280;3506914;-65
2024/03/29 18:42:51;;;;;;;;;;;;;;;;;;;;;
2024/03/29 18:46:55;;;;;;;5.80;2.00;;;;;;;14.44;52.87;98995.13;126272;1290;114955;-64
2024/03/29 18:50:45;;;;;;;7.20;3.10;;;;;;;14.39;53.10;99014.99;126175;1294;130056;-64
2024/03/29 18:54:46;;;;;;;5.10;1.90;;;;;;;14.35;53.35;99016.63;125818;1295;114900;-64
2024/03/29 19:03:06;;;;;;;5.50;2.00;;;;;;;14.22;53.48;99019.34;126287;1291;635900;-65
2024/03/29 19:07:09;;;;;;;8.90;2.20;;;;;;;14.10;53.59;99022.29;128671;1288;128728;-65
2024/03/29 19:11:11;;;;;;;6.10;2.40;;;;;;;14.00;53.86;99023.48;128225;1277;114780;-65
2024/03/29 19:15:03;;;;;;;;;;;;;;;;;;;;;
2024/03/29 19:18:39;;;;;;;;;;;;;;;;;;;;;
2024/03/29 19:22:57;;;;;;;5.30;2.60;;;;;;;13.64;54.40;99023.55;126757;1289;114926;-64
2024/03/29 19:26:58;;;;;;;6.30;2.20;;;;;;;13.52;54.87;99028.55;125796;1301;128690;-64
2024/03/29 19:35:33;;;;;;;4.80;2.60;;;;;;;13.30;55.41;99033.70;125498;1310;638420;-64
2024/03/29 19:39:35;;;;;;;6.50;2.50;;;;;;;13.17;55.72;99035.97;127474;1285;128098;-64
2024/03/29 19:43:35;;;;;;;;;;;;;;;;;;;;;
2024/03/29 19:47:28;;;;;;;;;;;;;;;;;;;;;
2024/03/29 19:55:58;;;;;;;7.10;4.30;;;;;;;12.90;56.59;99040.46;125660;1299;637013;-65
2024/03/29 20:00:03;;;;;;;6.90;4.80;;;;;;;12.78;56.73;99047.00;127377;1286;128887;-65
2024/03/29 20:04:07;;;;;;;9.20;5.00;;;;;;;12.66;57.06;99046.11;127249;1287;115026;-64
2024/03/29 20:07:51;;;;;;;10.80;6.00;;;;;;;12.53;57.16;99034.74;122335;1299;5463182;-65
2024/03/29 20:11:53;;;;;;;8.00;4.50;;;;;;;12.42;57.60;99031.10;125580;1317;115278;-64
2024/03/29 20:20:03;;;;;;;;;;;;;;;;;;;;;
2024/03/29 20:28:10;;;;;;;9.90;5.10;;;;;;;12.08;58.44;99027.84;126754;1290;114847;-64
2024/03/29 20:32:11;;;;;;;11.70;7.80;;;;;;;12.05;59.28;99029.34;121689;1320;5448291;-65
2024/03/29 20:36:12;;;;;;;9.90;4.70;;;;;;;12.04;59.80;99031.21;124881;1307;116432;-64
2024/03/29 20:48:36;;;;;;;;;;;;;;;;;;;;;
2024/03/29 20:56:48;;;;;;;12.70;4.90;;;;;;;12.30;61.33;99033.30;122229;1308;5424344;-64
2024/03/29 21:00:50;;;;;;;10.50;4.90;;;;;;;12.34;61.33;99037.34;125191;1323;114918;-64
2024/03/29 21:12:41;;;;;;;;;;;;;;;;;;;;;
2024/03/29 21:17:15;;;;;;;15.50;6.90;;;;;;;12.39;61.89;99038.55;125916;1307;639131;-66
2024/03/29 21:21:43;;;;;;;11.30;6.60;;;;;;;12.35;62.21;99032.16;127382;1284;127649;-65
2024/03/29 21:25:25;;;;;;;9.60;5.60;;;;;;;12.34;62.68;99030.34;127818;1281;114860;-65
2024/03/29 21:29:32;;;;;;;10.90;5.30;;;;;;;12.32;63.12;99035.72;123464;1289;5430280;-64
2024/03/29 21:33:34;;;;;;;13.50;5.80;;;;;;;12.29;63.46;99034.98;126869;1283;114952;-64
2024/03/29 21:45:29;;;;;;;9.60;4.80;;;;;;;12.20;64.35;99038.92;125265;1306;129751;-64
2024/03/29 21:53:56;;;;;;;12.40;6.00;;;;;;;12.18;64.88;99032.08;126083;1299;637388;-64
2024/03/29 21:58:00;;;;;;;15.30;5.40;;;;;;;12.12;65.48;99024.98;127614;1287;128832;-64
2024/03/29 22:02:01;;;;;;;9.30;4.30;;;;;;;12.08;65.35;99021.77;126145;1315;114962;-64
2024/03/29 22:06:00;;;;;;;;;;;;;;;;;;;;;
2024/03/29 22:14:37;;;;;;;9.80;4.60;;;;;;;11.98;66.72;99023.05;126015;1299;638372;-63
2024/03/29 22:18:41;;;;;;;10.40;4.10;;;;;;;11.94;67.51;99029.61;127827;1276;128230;-64
2024/03/29 22:22:45;;;;;;;3.50;1.90;;;;;;;11.94;67.78;99030.95;127358;1286;115021;-63
2024/03/29 22:26:38;;;;;;;;;;;;;;;;;;;;;
2024/03/29 22:39:10;;;;;;;8.40;3.20;;;;;;;12.22;69.07;99025.38;126066;1292;640560;-65
2024/03/29 22:43:13;;;;;;;8.10;3.20;;;;;;;12.23;69.50;99031.20;127668;1302;129014;-65
2024/03/29 22:47:06;;;;;;;12.10;2.90;;;;;;;12.24;69.23;99034.83;127497;1283;114980;-64
2024/03/29 22:51:07;;;;;;;5.90;2.60;;;;;;;12.24;69.80;99032.69;122757;1293;5438555;-65
2024/03/29 22:55:09;;;;;;;9.20;2.80;;;;;;;12.22;69.98;99038.59;125389;1321;114919;-65
2024/03/29 23:07:32;;;;;;;8.20;2.80;;;;;;;12.14;70.16;99052.44;127919;1284;128408;-63
2024/03/29 23:11:34;;;;;;;7.50;2.40;;;;;;;12.10;70.44;99054.02;127331;1305;114903;-64
2024/03/29 23:15:30;;;;;;;10.70;3.00;;;;;;;12.05;70.42;99050.60;122501;1293;5471606;-65
2024/03/29 23:27:53;;;;;;;8.60;3.20;;;;;;;11.87;71.44;99043.30;126207;1310;635979;-64
2024/03/29 23:31:56;;;;;;;8.00;2.80;;;;;;;11.78;71.17;99042.55;128042;1298;128396;-64
2024/03/29 23:35:59;;;;;;;6.70;3.00;;;;;;;11.72;71.69;99046.23;128303;1298;114838;-63
2024/03/29 23:44:10;;;;;;;6.00;2.80;;;;;;;11.63;72.40;99047.82;126320;1306;115022;-64
